sensor_id;sensor_type;location;lat;lon;timestamp;temperature;humidity
21259;DHT22;10787;53.364;-1.480;2022-12-10T00:01:20;0.30;99.90
21259;DHT22;10787;53.364;-1.480;2022-12-10T00:03:46;0.20;99.90
21259;DHT22;10787;53.364;-1.480;2022-12-10T00:06:18;0.10;99.90
21259;DHT22;10787;53.364;-1.480;2022-12-10T00:08:44;0.00;99.90
21259;DHT22;10787;53.364;-1.480;2022-12-10T00:11:13;0.00;99.90
21259;DHT22;10787;53.364;-1.480;2022-12-10T00:13:39;-0.10;99.90
21259;DHT22;10787;53.364;-1.480;2022-12-10T00:16:08;-0.10;99.90
21259;DHT22;10787;53.364;-1.480;2022-12-10T00:18:34;0.10;99.90
21259;DHT22;10787;53.364;-1.480;2022-12-10T00:21:05;0.20;99.90
21259;DHT22;10787;53.364;-1.480;2022-12-10T00:23:32;0.30;99.90
21259;DHT22;10787;53.364;-1.480;2022-12-10T00:26:06;0.50;99.90
21259;DHT22;10787;53.364;-1.480;2022-12-10T00:28:33;0.50;99.90
21259;DHT22;10787;53.364;-1.480;2022-12-10T00:31:22;0.50;99.90
21259;DHT22;10787;53.364;-1.480;2022-12-10T00:33:48;0.60;99.90
21259;DHT22;10787;53.364;-1.480;2022-12-10T00:36:20;0.60;99.90
21259;DHT22;10787;53.364;-1.480;2022-12-10T00:38:48;0.50;99.90
21259;DHT22;10787;53.364;-1.480;2022-12-10T00:41:14;0.60;99.90
21259;DHT22;10787;53.364;-1.480;2022-12-10T00:43:41;0.60;99.90
21259;DHT22;10787;53.364;-1.480;2022-12-10T00:46:08;0.60;99.90
21259;DHT22;10787;53.364;-1.480;2022-12-10T00:48:34;0.70;99.90
21259;DHT22;10787;53.364;-1.480;2022-12-10T00:51:06;0.70;99.90
21259;DHT22;10787;53.364;-1.480;2022-12-10T00:53:34;0.60;99.90
21259;DHT22;10787;53.364;-1.480;2022-12-10T00:56:00;0.60;99.90
21259;DHT22;10787;53.364;-1.480;2022-12-10T00:58:28;0.60;99.90
21259;DHT22;10787;53.364;-1.480;2022-12-10T01:01:01;0.60;99.90
21259;DHT22;10787;53.364;-1.480;2022-12-10T01:03:31;0.50;99.90
21259;DHT22;10787;53.364;-1.480;2022-12-10T01:05:56;0.40;99.90
21259;DHT22;10787;53.364;-1.480;2022-12-10T01:08:22;0.30;99.90
21259;DHT22;10787;53.364;-1.480;2022-12-10T01:10:53;0.30;99.90
21259;DHT22;10787;53.364;-1.480;2022-12-10T01:13:18;0.20;99.90
21259;DHT22;10787;53.364;-1.480;2022-12-10T01:15:45;0.20;99.90
21259;DHT22;10787;53.364;-1.480;2022-12-10T01:18:11;0.10;99.90
21259;DHT22;10787;53.364;-1.480;2022-12-10T01:20:37;0.00;99.90
21259;DHT22;10787;53.364;-1.480;2022-12-10T01:23:03;0.00;99.90
21259;DHT22;10787;53.364;-1.480;2022-12-10T01:25:28;0.00;99.90
21259;DHT22;10787;53.364;-1.480;2022-12-10T01:27:54;-0.10;99.90
21259;DHT22;10787;53.364;-1.480;2022-12-10T01:30:21;0.00;99.90
21259;DHT22;10787;53.364;-1.480;2022-12-10T01:32:46;0.00;99.90
21259;DHT22;10787;53.364;-1.480;2022-12-10T01:35:13;0.10;99.90
21259;DHT22;10787;53.364;-1.480;2022-12-10T01:37:39;0.10;99.90
21259;DHT22;10787;53.364;-1.480;2022-12-10T01:40:05;0.10;99.90
21259;DHT22;10787;53.364;-1.480;2022-12-10T01:42:31;0.10;99.90
21259;DHT22;10787;53.364;-1.480;2022-12-10T01:45:00;0.10;99.90
21259;DHT22;10787;53.364;-1.480;2022-12-10T01:47:27;0.00;99.90
21259;DHT22;10787;53.364;-1.480;2022-12-10T01:49:53;0.00;99.90
21259;DHT22;10787;53.364;-1.480;2022-12-10T01:52:19;0.00;99.90
21259;DHT22;10787;53.364;-1.480;2022-12-10T01:54:46;0.00;99.90
21259;DHT22;10787;53.364;-1.480;2022-12-10T01:57:21;0.00;99.90
21259;DHT22;10787;53.364;-1.480;2022-12-10T02:00:00;-0.10;99.90
21259;DHT22;10787;53.364;-1.480;2022-12-10T02:03:11;-0.10;99.90
21259;DHT22;10787;53.364;-1.480;2022-12-10T02:05:44;-0.10;99.90
21259;DHT22;10787;53.364;-1.480;2022-12-10T02:08:32;-0.20;99.90
21259;DHT22;10787;53.364;-1.480;2022-12-10T02:13:41;-0.10;99.90
21259;DHT22;10787;53.364;-1.480;2022-12-10T02:16:14;0.00;99.90
21259;DHT22;10787;53.364;-1.480;2022-12-10T02:18:58;0.10;99.90
21259;DHT22;10787;53.364;-1.480;2022-12-10T02:21:35;0.10;99.90
21259;DHT22;10787;53.364;-1.480;2022-12-10T02:24:12;0.10;99.90
21259;DHT22;10787;53.364;-1.480;2022-12-10T02:26:49;0.20;99.90
21259;DHT22;10787;53.364;-1.480;2022-12-10T02:29:21;0.20;99.90
21259;DHT22;10787;53.364;-1.480;2022-12-10T02:32:10;0.30;99.90
21259;DHT22;10787;53.364;-1.480;2022-12-10T02:34:42;0.20;99.90
21259;DHT22;10787;53.364;-1.480;2022-12-10T02:37:20;0.20;99.90
21259;DHT22;10787;53.364;-1.480;2022-12-10T02:39:49;0.10;99.90
21259;DHT22;10787;53.364;-1.480;2022-12-10T02:42:17;0.10;99.90
21259;DHT22;10787;53.364;-1.480;2022-12-10T02:44:44;0.10;99.90
21259;DHT22;10787;53.364;-1.480;2022-12-10T02:47:12;0.20;99.90
21259;DHT22;10787;53.364;-1.480;2022-12-10T02:49:40;0.30;99.90
21259;DHT22;10787;53.364;-1.480;2022-12-10T02:52:08;0.30;99.90
21259;DHT22;10787;53.364;-1.480;2022-12-10T02:54:42;0.30;99.90
21259;DHT22;10787;53.364;-1.480;2022-12-10T02:57:34;0.40;99.90
21259;DHT22;10787;53.364;-1.480;2022-12-10T03:00:06;0.60;99.90
21259;DHT22;10787;53.364;-1.480;2022-12-10T03:03:23;0.60;99.90
21259;DHT22;10787;53.364;-1.480;2022-12-10T03:05:45;0.70;99.90
21259;DHT22;10787;53.364;-1.480;2022-12-10T03:08:25;0.70;99.90
21259;DHT22;10787;53.364;-1.480;2022-12-10T03:11:12;0.80;99.90
21259;DHT22;10787;53.364;-1.480;2022-12-10T03:13:57;0.70;99.90
21259;DHT22;10787;53.364;-1.480;2022-12-10T03:16:55;0.70;99.90
21259;DHT22;10787;53.364;-1.480;2022-12-10T03:19:51;0.70;99.90
21259;DHT22;10787;53.364;-1.480;2022-12-10T03:22:19;0.60;99.90
21259;DHT22;10787;53.364;-1.480;2022-12-10T03:24:47;0.60;99.90
21259;DHT22;10787;53.364;-1.480;2022-12-10T03:27:15;0.70;99.90
21259;DHT22;10787;53.364;-1.480;2022-12-10T03:29:48;0.70;99.90
21259;DHT22;10787;53.364;-1.480;2022-12-10T03:32:16;0.80;99.90
21259;DHT22;10787;53.364;-1.480;2022-12-10T03:34:44;0.90;99.90
21259;DHT22;10787;53.364;-1.480;2022-12-10T03:37:12;0.80;99.90
21259;DHT22;10787;53.364;-1.480;2022-12-10T03:39:38;0.80;99.90
21259;DHT22;10787;53.364;-1.480;2022-12-10T03:42:06;0.90;99.90
21259;DHT22;10787;53.364;-1.480;2022-12-10T03:44:34;0.90;99.90
21259;DHT22;10787;53.364;-1.480;2022-12-10T03:47:05;0.90;99.90
21259;DHT22;10787;53.364;-1.480;2022-12-10T03:49:31;1.00;99.90
21259;DHT22;10787;53.364;-1.480;2022-12-10T03:51:57;1.10;99.90
21259;DHT22;10787;53.364;-1.480;2022-12-10T03:54:23;1.10;99.90
21259;DHT22;10787;53.364;-1.480;2022-12-10T03:56:49;1.10;99.90
21259;DHT22;10787;53.364;-1.480;2022-12-10T03:59:15;1.20;99.90
21259;DHT22;10787;53.364;-1.480;2022-12-10T04:01:41;1.20;99.90
21259;DHT22;10787;53.364;-1.480;2022-12-10T04:04:08;1.20;99.90
21259;DHT22;10787;53.364;-1.480;2022-12-10T04:06:37;1.30;99.90
21259;DHT22;10787;53.364;-1.480;2022-12-10T04:09:03;1.40;99.90
21259;DHT22;10787;53.364;-1.480;2022-12-10T04:11:28;1.40;99.90
21259;DHT22;10787;53.364;-1.480;2022-12-10T04:13:55;1.40;99.90
21259;DHT22;10787;53.364;-1.480;2022-12-10T04:16:39;1.30;99.90
21259;DHT22;10787;53.364;-1.480;2022-12-10T04:19:10;1.30;99.90
21259;DHT22;10787;53.364;-1.480;2022-12-10T04:21:38;1.20;99.90
21259;DHT22;10787;53.364;-1.480;2022-12-10T04:24:27;1.10;99.90
21259;DHT22;10787;53.364;-1.480;2022-12-10T04:27:21;1.10;99.90
21259;DHT22;10787;53.364;-1.480;2022-12-10T04:29:48;1.10;99.90
21259;DHT22;10787;53.364;-1.480;2022-12-10T04:32:14;1.10;99.90
21259;DHT22;10787;53.364;-1.480;2022-12-10T04:34:40;1.10;99.90
21259;DHT22;10787;53.364;-1.480;2022-12-10T04:37:08;1.20;99.90
21259;DHT22;10787;53.364;-1.480;2022-12-10T04:39:33;1.10;99.90
21259;DHT22;10787;53.364;-1.480;2022-12-10T04:42:00;1.10;99.90
21259;DHT22;10787;53.364;-1.480;2022-12-10T04:44:26;1.10;99.90
21259;DHT22;10787;53.364;-1.480;2022-12-10T04:46:52;1.00;99.90
21259;DHT22;10787;53.364;-1.480;2022-12-10T04:49:18;0.90;99.90
21259;DHT22;10787;53.364;-1.480;2022-12-10T04:51:44;0.90;99.90
21259;DHT22;10787;53.364;-1.480;2022-12-10T04:54:13;0.90;99.90
21259;DHT22;10787;53.364;-1.480;2022-12-10T04:56:39;0.80;99.90
21259;DHT22;10787;53.364;-1.480;2022-12-10T04:59:06;0.80;99.90
21259;DHT22;10787;53.364;-1.480;2022-12-10T05:01:32;0.80;99.90
21259;DHT22;10787;53.364;-1.480;2022-12-10T05:04:03;0.80;99.90
21259;DHT22;10787;53.364;-1.480;2022-12-10T05:06:30;0.90;99.90
21259;DHT22;10787;53.364;-1.480;2022-12-10T05:08:56;0.90;99.90
21259;DHT22;10787;53.364;-1.480;2022-12-10T05:11:24;1.00;99.90
21259;DHT22;10787;53.364;-1.480;2022-12-10T05:13:52;1.10;99.90
21259;DHT22;10787;53.364;-1.480;2022-12-10T05:16:19;1.10;99.90
21259;DHT22;10787;53.364;-1.480;2022-12-10T05:18:46;1.00;99.90
21259;DHT22;10787;53.364;-1.480;2022-12-10T05:21:14;1.00;99.90
21259;DHT22;10787;53.364;-1.480;2022-12-10T05:23:42;1.00;99.90
21259;DHT22;10787;53.364;-1.480;2022-12-10T05:26:19;0.90;99.90
21259;DHT22;10787;53.364;-1.480;2022-12-10T05:28:48;0.80;99.90
21259;DHT22;10787;53.364;-1.480;2022-12-10T05:31:19;0.80;99.90
21259;DHT22;10787;53.364;-1.480;2022-12-10T05:33:46;0.80;99.90
21259;DHT22;10787;53.364;-1.480;2022-12-10T05:36:14;0.80;99.90
21259;DHT22;10787;53.364;-1.480;2022-12-10T05:38:41;0.80;99.90
21259;DHT22;10787;53.364;-1.480;2022-12-10T05:41:18;0.90;99.90
21259;DHT22;10787;53.364;-1.480;2022-12-10T05:43:45;0.90;99.90
21259;DHT22;10787;53.364;-1.480;2022-12-10T05:46:14;0.90;99.90
21259;DHT22;10787;53.364;-1.480;2022-12-10T05:48:40;0.90;99.90
21259;DHT22;10787;53.364;-1.480;2022-12-10T05:51:12;0.90;99.90
21259;DHT22;10787;53.364;-1.480;2022-12-10T05:53:38;0.90;99.90
21259;DHT22;10787;53.364;-1.480;2022-12-10T05:56:06;0.90;99.90
21259;DHT22;10787;53.364;-1.480;2022-12-10T05:58:33;0.90;99.90
21259;DHT22;10787;53.364;-1.480;2022-12-10T06:00:59;1.10;99.90
21259;DHT22;10787;53.364;-1.480;2022-12-10T06:03:27;1.10;99.90
21259;DHT22;10787;53.364;-1.480;2022-12-10T06:05:53;1.10;99.90
21259;DHT22;10787;53.364;-1.480;2022-12-10T06:08:19;1.20;99.90
21259;DHT22;10787;53.364;-1.480;2022-12-10T06:10:45;1.20;99.90
21259;DHT22;10787;53.364;-1.480;2022-12-10T06:13:11;1.30;99.90
21259;DHT22;10787;53.364;-1.480;2022-12-10T06:15:41;1.40;99.90
21259;DHT22;10787;53.364;-1.480;2022-12-10T06:18:08;1.40;99.90
21259;DHT22;10787;53.364;-1.480;2022-12-10T06:20:38;1.50;99.90
21259;DHT22;10787;53.364;-1.480;2022-12-10T06:23:04;1.50;99.90
21259;DHT22;10787;53.364;-1.480;2022-12-10T06:25:30;1.60;99.90
21259;DHT22;10787;53.364;-1.480;2022-12-10T06:27:56;1.60;99.90
21259;DHT22;10787;53.364;-1.480;2022-12-10T06:30:22;1.60;99.90
21259;DHT22;10787;53.364;-1.480;2022-12-10T06:32:47;1.60;99.90
21259;DHT22;10787;53.364;-1.480;2022-12-10T06:35:13;1.60;99.90
21259;DHT22;10787;53.364;-1.480;2022-12-10T06:37:39;1.60;99.90
21259;DHT22;10787;53.364;-1.480;2022-12-10T06:40:05;1.60;99.90
21259;DHT22;10787;53.364;-1.480;2022-12-10T06:42:31;1.70;99.90
21259;DHT22;10787;53.364;-1.480;2022-12-10T06:44:58;1.80;99.90
21259;DHT22;10787;53.364;-1.480;2022-12-10T06:47:24;1.80;99.90
21259;DHT22;10787;53.364;-1.480;2022-12-10T06:49:50;1.80;99.90
21259;DHT22;10787;53.364;-1.480;2022-12-10T06:52:15;1.70;99.90
21259;DHT22;10787;53.364;-1.480;2022-12-10T06:54:42;1.70;99.90
21259;DHT22;10787;53.364;-1.480;2022-12-10T06:57:08;1.70;99.90
21259;DHT22;10787;53.364;-1.480;2022-12-10T06:59:33;1.70;99.90
21259;DHT22;10787;53.364;-1.480;2022-12-10T07:02:00;1.70;99.90
21259;DHT22;10787;53.364;-1.480;2022-12-10T07:04:26;1.70;99.90
21259;DHT22;10787;53.364;-1.480;2022-12-10T07:06:52;1.70;99.90
21259;DHT22;10787;53.364;-1.480;2022-12-10T07:09:18;1.70;99.90
21259;DHT22;10787;53.364;-1.480;2022-12-10T07:11:43;1.70;99.90
21259;DHT22;10787;53.364;-1.480;2022-12-10T07:14:15;1.70;99.90
21259;DHT22;10787;53.364;-1.480;2022-12-10T07:16:42;1.80;99.90
21259;DHT22;10787;53.364;-1.480;2022-12-10T07:19:10;1.80;99.90
21259;DHT22;10787;53.364;-1.480;2022-12-10T07:21:38;1.90;99.90
21259;DHT22;10787;53.364;-1.480;2022-12-10T07:24:09;1.90;99.90
21259;DHT22;10787;53.364;-1.480;2022-12-10T07:26:38;1.90;99.90
21259;DHT22;10787;53.364;-1.480;2022-12-10T07:29:05;1.90;99.90
21259;DHT22;10787;53.364;-1.480;2022-12-10T07:31:31;1.90;99.90
21259;DHT22;10787;53.364;-1.480;2022-12-10T07:33:58;1.90;99.90
21259;DHT22;10787;53.364;-1.480;2022-12-10T07:36:24;2.00;99.90
21259;DHT22;10787;53.364;-1.480;2022-12-10T07:38:51;2.00;99.90
21259;DHT22;10787;53.364;-1.480;2022-12-10T07:41:19;2.00;99.90
21259;DHT22;10787;53.364;-1.480;2022-12-10T07:43:46;2.00;99.90
21259;DHT22;10787;53.364;-1.480;2022-12-10T07:46:20;2.10;99.90
21259;DHT22;10787;53.364;-1.480;2022-12-10T07:48:47;2.10;99.90
21259;DHT22;10787;53.364;-1.480;2022-12-10T07:51:14;2.10;99.90
21259;DHT22;10787;53.364;-1.480;2022-12-10T07:53:41;2.10;99.90
21259;DHT22;10787;53.364;-1.480;2022-12-10T07:56:09;2.10;99.90
21259;DHT22;10787;53.364;-1.480;2022-12-10T07:58:35;2.10;99.90
21259;DHT22;10787;53.364;-1.480;2022-12-10T08:01:12;2.20;99.90
21259;DHT22;10787;53.364;-1.480;2022-12-10T08:03:38;2.20;99.90
21259;DHT22;10787;53.364;-1.480;2022-12-10T08:06:07;2.20;99.90
21259;DHT22;10787;53.364;-1.480;2022-12-10T08:08:36;2.20;99.90
21259;DHT22;10787;53.364;-1.480;2022-12-10T08:11:02;2.20;99.90
21259;DHT22;10787;53.364;-1.480;2022-12-10T08:13:30;2.20;99.90
21259;DHT22;10787;53.364;-1.480;2022-12-10T08:16:11;2.20;99.90
21259;DHT22;10787;53.364;-1.480;2022-12-10T08:18:38;2.30;99.90
21259;DHT22;10787;53.364;-1.480;2022-12-10T08:21:06;2.30;99.90
21259;DHT22;10787;53.364;-1.480;2022-12-10T08:23:33;2.30;99.90
21259;DHT22;10787;53.364;-1.480;2022-12-10T08:26:02;2.40;99.90
21259;DHT22;10787;53.364;-1.480;2022-12-10T08:28:29;2.40;99.90
21259;DHT22;10787;53.364;-1.480;2022-12-10T08:30:55;2.40;99.90
21259;DHT22;10787;53.364;-1.480;2022-12-10T08:33:21;2.50;99.90
21259;DHT22;10787;53.364;-1.480;2022-12-10T08:35:47;2.70;99.90
21259;DHT22;10787;53.364;-1.480;2022-12-10T08:38:13;3.10;99.90
21259;DHT22;10787;53.364;-1.480;2022-12-10T08:40:41;3.40;99.90
21259;DHT22;10787;53.364;-1.480;2022-12-10T08:43:08;3.60;99.90
21259;DHT22;10787;53.364;-1.480;2022-12-10T08:45:35;3.50;99.90
21259;DHT22;10787;53.364;-1.480;2022-12-10T08:48:01;3.50;99.90
21259;DHT22;10787;53.364;-1.480;2022-12-10T08:50:28;3.50;99.90
21259;DHT22;10787;53.364;-1.480;2022-12-10T08:52:54;3.40;99.90
21259;DHT22;10787;53.364;-1.480;2022-12-10T08:55:19;3.30;99.90
21259;DHT22;10787;53.364;-1.480;2022-12-10T08:57:45;3.20;99.90
21259;DHT22;10787;53.364;-1.480;2022-12-10T09:00:12;3.20;99.90
21259;DHT22;10787;53.364;-1.480;2022-12-10T09:02:39;3.20;99.90
21259;DHT22;10787;53.364;-1.480;2022-12-10T09:05:05;3.20;99.90
21259;DHT22;10787;53.364;-1.480;2022-12-10T09:07:31;3.20;99.90
21259;DHT22;10787;53.364;-1.480;2022-12-10T09:09:57;3.20;99.90
21259;DHT22;10787;53.364;-1.480;2022-12-10T09:12:23;3.20;99.90
21259;DHT22;10787;53.364;-1.480;2022-12-10T09:14:49;3.20;99.90
21259;DHT22;10787;53.364;-1.480;2022-12-10T09:17:15;3.20;99.90
21259;DHT22;10787;53.364;-1.480;2022-12-10T09:19:40;3.30;99.90
21259;DHT22;10787;53.364;-1.480;2022-12-10T09:22:06;3.30;99.90
21259;DHT22;10787;53.364;-1.480;2022-12-10T09:24:32;3.30;99.90
21259;DHT22;10787;53.364;-1.480;2022-12-10T09:27:00;3.40;99.90
21259;DHT22;10787;53.364;-1.480;2022-12-10T09:29:26;3.50;99.90
21259;DHT22;10787;53.364;-1.480;2022-12-10T09:31:52;3.50;99.90
21259;DHT22;10787;53.364;-1.480;2022-12-10T09:34:18;3.50;99.90
21259;DHT22;10787;53.364;-1.480;2022-12-10T09:36:46;3.50;99.90
21259;DHT22;10787;53.364;-1.480;2022-12-10T09:39:12;3.60;99.90
21259;DHT22;10787;53.364;-1.480;2022-12-10T09:42:10;3.70;99.90
21259;DHT22;10787;53.364;-1.480;2022-12-10T09:45:21;3.80;99.90
21259;DHT22;10787;53.364;-1.480;2022-12-10T09:50:26;3.80;99.90
21259;DHT22;10787;53.364;-1.480;2022-12-10T09:52:54;3.90;99.90
21259;DHT22;10787;53.364;-1.480;2022-12-10T09:55:33;3.80;99.90
21259;DHT22;10787;53.364;-1.480;2022-12-10T09:58:02;3.80;99.90
21259;DHT22;10787;53.364;-1.480;2022-12-10T10:00:30;3.70;99.90
21259;DHT22;10787;53.364;-1.480;2022-12-10T10:02:59;3.70;99.90
21259;DHT22;10787;53.364;-1.480;2022-12-10T10:05:39;3.60;99.90
21259;DHT22;10787;53.364;-1.480;2022-12-10T10:08:13;3.60;99.90
21259;DHT22;10787;53.364;-1.480;2022-12-10T10:10:41;3.60;99.90
21259;DHT22;10787;53.364;-1.480;2022-12-10T10:15:36;3.70;99.90
21259;DHT22;10787;53.364;-1.480;2022-12-10T10:20:37;3.90;99.90
21259;DHT22;10787;53.364;-1.480;2022-12-10T10:23:03;3.90;99.90
21259;DHT22;10787;53.364;-1.480;2022-12-10T10:25:29;4.10;99.90
21259;DHT22;10787;53.364;-1.480;2022-12-10T10:27:56;4.20;99.90
21259;DHT22;10787;53.364;-1.480;2022-12-10T10:30:23;4.40;99.90
21259;DHT22;10787;53.364;-1.480;2022-12-10T10:32:53;4.50;99.90
21259;DHT22;10787;53.364;-1.480;2022-12-10T10:35:22;4.60;99.90
21259;DHT22;10787;53.364;-1.480;2022-12-10T10:37:49;4.80;99.90
21259;DHT22;10787;53.364;-1.480;2022-12-10T10:42:47;5.00;99.90
21259;DHT22;10787;53.364;-1.480;2022-12-10T10:45:47;5.10;99.90
21259;DHT22;10787;53.364;-1.480;2022-12-10T10:48:16;5.10;99.90
21259;DHT22;10787;53.364;-1.480;2022-12-10T10:50:45;5.20;99.90
21259;DHT22;10787;53.364;-1.480;2022-12-10T10:55:55;5.20;99.90
21259;DHT22;10787;53.364;-1.480;2022-12-10T10:58:23;5.30;99.90
21259;DHT22;10787;53.364;-1.480;2022-12-10T11:01:06;5.40;99.90
21259;DHT22;10787;53.364;-1.480;2022-12-10T11:03:35;5.50;99.90
21259;DHT22;10787;53.364;-1.480;2022-12-10T11:06:05;5.50;99.90
21259;DHT22;10787;53.364;-1.480;2022-12-10T11:08:32;5.40;99.90
21259;DHT22;10787;53.364;-1.480;2022-12-10T11:11:19;5.10;99.90
21259;DHT22;10787;53.364;-1.480;2022-12-10T11:13:46;5.00;99.90
21259;DHT22;10787;53.364;-1.480;2022-12-10T11:16:19;4.90;99.90
21259;DHT22;10787;53.364;-1.480;2022-12-10T11:18:59;4.90;99.90
21259;DHT22;10787;53.364;-1.480;2022-12-10T11:21:29;5.00;99.90
21259;DHT22;10787;53.364;-1.480;2022-12-10T11:23:57;5.00;99.90
21259;DHT22;10787;53.364;-1.480;2022-12-10T11:26:46;4.90;99.90
21259;DHT22;10787;53.364;-1.480;2022-12-10T11:30:08;4.90;99.90
21259;DHT22;10787;53.364;-1.480;2022-12-10T11:33:31;4.90;99.90
21259;DHT22;10787;53.364;-1.480;2022-12-10T11:38:26;4.60;99.90
21259;DHT22;10787;53.364;-1.480;2022-12-10T11:44:10;4.40;99.90
21259;DHT22;10787;53.364;-1.480;2022-12-10T11:46:59;4.40;99.90
21259;DHT22;10787;53.364;-1.480;2022-12-10T11:52:01;4.30;99.90
21259;DHT22;10787;53.364;-1.480;2022-12-10T11:57:24;4.20;99.90
21259;DHT22;10787;53.364;-1.480;2022-12-10T11:59:59;4.10;99.90
21259;DHT22;10787;53.364;-1.480;2022-12-10T12:02:44;4.00;99.90
21259;DHT22;10787;53.364;-1.480;2022-12-10T12:16:30;3.70;99.90
21259;DHT22;10787;53.364;-1.480;2022-12-10T12:19:23;3.70;99.90
21259;DHT22;10787;53.364;-1.480;2022-12-10T12:21:51;3.70;99.90
21259;DHT22;10787;53.364;-1.480;2022-12-10T12:24:35;3.60;99.90
21259;DHT22;10787;53.364;-1.480;2022-12-10T12:27:12;3.60;99.90
21259;DHT22;10787;53.364;-1.480;2022-12-10T12:29:53;3.70;99.90
21259;DHT22;10787;53.364;-1.480;2022-12-10T12:32:25;3.70;99.90
21259;DHT22;10787;53.364;-1.480;2022-12-10T12:34:56;3.70;99.90
21259;DHT22;10787;53.364;-1.480;2022-12-10T12:37:34;3.70;99.90
21259;DHT22;10787;53.364;-1.480;2022-12-10T12:42:58;3.70;99.90
21259;DHT22;10787;53.364;-1.480;2022-12-10T12:45:30;3.70;99.90
21259;DHT22;10787;53.364;-1.480;2022-12-10T12:50:59;3.80;99.90
21259;DHT22;10787;53.364;-1.480;2022-12-10T12:53:25;4.00;99.90
21259;DHT22;10787;53.364;-1.480;2022-12-10T13:04:07;4.30;99.90
21259;DHT22;10787;53.364;-1.480;2022-12-10T13:06:35;4.50;99.90
21259;DHT22;10787;53.364;-1.480;2022-12-10T13:11:40;4.60;99.90
21259;DHT22;10787;53.364;-1.480;2022-12-10T13:24:42;5.20;99.90
21259;DHT22;10787;53.364;-1.480;2022-12-10T13:30:00;5.20;99.90
21259;DHT22;10787;53.364;-1.480;2022-12-10T13:40:26;4.80;99.90
21259;DHT22;10787;53.364;-1.480;2022-12-10T13:47:04;4.80;99.90
21259;DHT22;10787;53.364;-1.480;2022-12-10T13:49:23;5.00;99.90
21259;DHT22;10787;53.364;-1.480;2022-12-10T14:00:17;5.20;99.90
21259;DHT22;10787;53.364;-1.480;2022-12-10T14:03:22;5.10;99.90
21259;DHT22;10787;53.364;-1.480;2022-12-10T14:06:32;5.00;99.90
21259;DHT22;10787;53.364;-1.480;2022-12-10T14:09:15;4.80;99.90
21259;DHT22;10787;53.364;-1.480;2022-12-10T14:14:33;4.80;99.90
21259;DHT22;10787;53.364;-1.480;2022-12-10T14:17:05;4.80;99.90
21259;DHT22;10787;53.364;-1.480;2022-12-10T14:19:33;4.80;99.90
21259;DHT22;10787;53.364;-1.480;2022-12-10T14:22:08;4.70;99.90
21259;DHT22;10787;53.364;-1.480;2022-12-10T14:24:38;4.60;99.90
21259;DHT22;10787;53.364;-1.480;2022-12-10T14:27:19;4.60;99.90
21259;DHT22;10787;53.364;-1.480;2022-12-10T14:29:58;4.60;99.90
21259;DHT22;10787;53.364;-1.480;2022-12-10T14:32:36;4.60;99.90
21259;DHT22;10787;53.364;-1.480;2022-12-10T14:35:06;4.50;99.90
21259;DHT22;10787;53.364;-1.480;2022-12-10T14:37:36;4.50;99.90
21259;DHT22;10787;53.364;-1.480;2022-12-10T14:40:06;4.40;99.90
21259;DHT22;10787;53.364;-1.480;2022-12-10T14:42:33;4.30;99.90
21259;DHT22;10787;53.364;-1.480;2022-12-10T14:45:02;4.20;99.90
21259;DHT22;10787;53.364;-1.480;2022-12-10T14:47:36;4.10;99.90
21259;DHT22;10787;53.364;-1.480;2022-12-10T14:50:03;4.00;99.90
21259;DHT22;10787;53.364;-1.480;2022-12-10T14:52:34;4.00;99.90
21259;DHT22;10787;53.364;-1.480;2022-12-10T14:55:04;3.90;99.90
21259;DHT22;10787;53.364;-1.480;2022-12-10T14:57:38;3.90;99.90
21259;DHT22;10787;53.364;-1.480;2022-12-10T15:02:40;3.80;99.90
21259;DHT22;10787;53.364;-1.480;2022-12-10T15:05:13;3.70;99.90
21259;DHT22;10787;53.364;-1.480;2022-12-10T15:07:41;3.80;99.90
21259;DHT22;10787;53.364;-1.480;2022-12-10T15:10:16;3.70;99.90
21259;DHT22;10787;53.364;-1.480;2022-12-10T15:12:49;3.80;99.90
21259;DHT22;10787;53.364;-1.480;2022-12-10T15:15:30;3.80;99.90
21259;DHT22;10787;53.364;-1.480;2022-12-10T15:18:16;3.80;99.90
21259;DHT22;10787;53.364;-1.480;2022-12-10T15:20:52;3.80;99.90
21259;DHT22;10787;53.364;-1.480;2022-12-10T15:28:28;3.60;99.90
21259;DHT22;10787;53.364;-1.480;2022-12-10T15:30:57;3.60;99.90
21259;DHT22;10787;53.364;-1.480;2022-12-10T15:33:36;3.60;99.90
21259;DHT22;10787;53.364;-1.480;2022-12-10T15:36:03;3.50;99.90
21259;DHT22;10787;53.364;-1.480;2022-12-10T15:38:29;3.50;99.90
21259;DHT22;10787;53.364;-1.480;2022-12-10T15:41:00;3.50;99.90
21259;DHT22;10787;53.364;-1.480;2022-12-10T15:43:53;3.40;99.90
21259;DHT22;10787;53.364;-1.480;2022-12-10T15:46:21;3.40;99.90
21259;DHT22;10787;53.364;-1.480;2022-12-10T15:48:46;3.40;99.90
21259;DHT22;10787;53.364;-1.480;2022-12-10T15:51:18;3.40;99.90
21259;DHT22;10787;53.364;-1.480;2022-12-10T15:53:45;3.40;99.90
21259;DHT22;10787;53.364;-1.480;2022-12-10T15:56:25;3.40;99.90
21259;DHT22;10787;53.364;-1.480;2022-12-10T15:58:51;3.40;99.90
21259;DHT22;10787;53.364;-1.480;2022-12-10T16:01:18;3.40;99.90
21259;DHT22;10787;53.364;-1.480;2022-12-10T16:03:44;3.30;99.90
21259;DHT22;10787;53.364;-1.480;2022-12-10T16:06:10;3.30;99.90
21259;DHT22;10787;53.364;-1.480;2022-12-10T16:08:36;3.30;99.90
21259;DHT22;10787;53.364;-1.480;2022-12-10T16:11:12;3.30;99.90
21259;DHT22;10787;53.364;-1.480;2022-12-10T16:13:41;3.20;99.90
21259;DHT22;10787;53.364;-1.480;2022-12-10T16:16:11;3.20;99.90
21259;DHT22;10787;53.364;-1.480;2022-12-10T16:18:38;3.20;99.90
21259;DHT22;10787;53.364;-1.480;2022-12-10T16:21:05;3.10;99.90
21259;DHT22;10787;53.364;-1.480;2022-12-10T16:23:32;3.10;99.90
21259;DHT22;10787;53.364;-1.480;2022-12-10T16:25:58;3.00;99.90
21259;DHT22;10787;53.364;-1.480;2022-12-10T16:28:25;3.00;99.90
21259;DHT22;10787;53.364;-1.480;2022-12-10T16:30:56;2.90;99.90
21259;DHT22;10787;53.364;-1.480;2022-12-10T16:33:24;2.90;99.90
21259;DHT22;10787;53.364;-1.480;2022-12-10T16:35:52;2.80;99.90
21259;DHT22;10787;53.364;-1.480;2022-12-10T16:38:19;2.80;99.90
21259;DHT22;10787;53.364;-1.480;2022-12-10T16:40:46;2.80;99.90
21259;DHT22;10787;53.364;-1.480;2022-12-10T16:43:18;2.70;99.90
21259;DHT22;10787;53.364;-1.480;2022-12-10T16:45:45;2.70;99.90
21259;DHT22;10787;53.364;-1.480;2022-12-10T16:48:12;2.70;99.90
21259;DHT22;10787;53.364;-1.480;2022-12-10T16:50:39;2.70;99.90
21259;DHT22;10787;53.364;-1.480;2022-12-10T16:53:23;2.70;99.90
21259;DHT22;10787;53.364;-1.480;2022-12-10T16:55:51;2.70;99.90
21259;DHT22;10787;53.364;-1.480;2022-12-10T16:58:18;2.70;99.90
21259;DHT22;10787;53.364;-1.480;2022-12-10T17:00:46;2.70;99.90
21259;DHT22;10787;53.364;-1.480;2022-12-10T17:03:15;2.70;99.90
21259;DHT22;10787;53.364;-1.480;2022-12-10T17:05:48;2.70;99.90
21259;DHT22;10787;53.364;-1.480;2022-12-10T17:08:16;2.70;99.90
21259;DHT22;10787;53.364;-1.480;2022-12-10T17:10:45;2.70;99.90
21259;DHT22;10787;53.364;-1.480;2022-12-10T17:13:31;2.70;99.90
21259;DHT22;10787;53.364;-1.480;2022-12-10T17:15:59;2.70;99.90
21259;DHT22;10787;53.364;-1.480;2022-12-10T17:18:26;2.70;99.90
21259;DHT22;10787;53.364;-1.480;2022-12-10T17:20:52;2.70;99.90
21259;DHT22;10787;53.364;-1.480;2022-12-10T17:23:19;2.70;99.90
21259;DHT22;10787;53.364;-1.480;2022-12-10T17:25:48;2.80;99.90
21259;DHT22;10787;53.364;-1.480;2022-12-10T17:28:17;2.80;99.90
21259;DHT22;10787;53.364;-1.480;2022-12-10T17:30:44;2.90;99.90